Time;durP1;ratioP1;P1;durP2;ratioP2;P2;SDS_P1;SDS_P2;PMS_P1;PMS_P2;Temp;Humidity;BMP_temperature;BMP_pressure;BME280_temperature;BME280_humidity;BME280_pressure;Samples;Min_cycle;Max_cycle;Signal;HPM_P1;HPM_P2
2023/08/11 00:01:25;;;;;;;4.82;2.58;;;16.70;99.90;;;;;;5062537;28;20047;-81
2023/08/11 00:03:51;;;;;;;5.53;2.92;;;16.70;99.90;;;;;;5061530;28;20036;-81
2023/08/11 00:06:17;;;;;;;3.88;2.72;;;16.60;99.90;;;;;;5060567;28;20102;-80
2023/08/11 00:08:43;;;;;;;6.15;3.08;;;16.60;99.90;;;;;;5057912;28;20041;-81
2023/08/11 00:11:11;;;;;;;3.60;2.75;;;16.60;99.90;;;;;;5060564;28;20045;-81
2023/08/11 00:13:37;;;;;;;5.00;2.70;;;16.50;99.90;;;;;;5061799;28;20080;-80
2023/08/11 00:16:03;;;;;;;3.95;3.10;;;16.50;99.90;;;;;;5055577;28;20047;-82
2023/08/11 00:18:29;;;;;;;3.35;2.72;;;16.40;99.90;;;;;;5058077;28;20098;-82
2023/08/11 00:20:55;;;;;;;4.20;3.20;;;16.40;99.90;;;;;;5064866;28;20434;-82
2023/08/11 00:23:21;;;;;;;3.88;3.17;;;16.40;99.90;;;;;;5060722;28;20062;-82
2023/08/11 00:25:47;;;;;;;3.25;2.63;;;16.60;99.90;;;;;;5058217;28;20037;-82
2023/08/11 00:28:13;;;;;;;3.00;2.80;;;16.30;99.90;;;;;;5059737;28;20139;-82
2023/08/11 00:30:38;;;;;;;5.60;3.17;;;16.30;99.90;;;;;;5061805;28;20488;-82
2023/08/11 00:33:05;;;;;;;5.95;3.05;;;16.20;99.90;;;;;;5062748;28;20480;-81
2023/08/11 00:35:31;;;;;;;4.40;2.38;;;16.30;99.90;;;;;;5050474;28;20542;-82
2023/08/11 00:37:56;;;;;;;4.35;2.78;;;16.30;99.90;;;;;;5059068;28;20072;-82
2023/08/11 00:40:23;;;;;;;5.47;2.97;;;16.30;99.90;;;;;;5061374;28;20098;-82
2023/08/11 00:42:49;;;;;;;2.97;2.40;;;16.20;99.90;;;;;;5062230;28;20043;-82
2023/08/11 00:45:16;;;;;;;3.05;2.85;;;16.80;99.90;;;;;;5061917;28;20052;-82
2023/08/11 00:47:42;;;;;;;3.40;3.10;;;16.10;99.90;;;;;;5057845;28;20072;-82
2023/08/11 00:50:13;;;;;;;3.83;2.60;;;16.10;99.90;;;;;;5059276;28;20130;-81
2023/08/11 00:52:39;;;;;;;3.35;3.05;;;16.10;99.90;;;;;;5062575;28;20040;-82
2023/08/11 00:55:09;;;;;;;2.45;2.25;;;16.10;99.90;;;;;;5063069;28;20041;-81
2023/08/11 00:57:36;;;;;;;5.45;3.20;;;15.40;99.90;;;;;;5050644;28;20037;-82
2023/08/11 01:00:13;;;;;;;3.67;2.78;;;16.10;99.90;;;;;;5059558;28;20044;-81
2023/08/11 01:02:43;;;;;;;6.05;3.10;;;16.00;99.90;;;;;;5056783;28;20041;-81
2023/08/11 01:05:11;;;;;;;2.78;2.42;;;16.00;99.90;;;;;;5069057;28;20049;-82
2023/08/11 01:08:03;;;;;;;4.35;3.05;;;16.00;99.90;;;;;;5065032;28;20392;-81
2023/08/11 01:10:43;;;;;;;5.03;3.35;;;16.00;99.90;;;;;;5059302;28;20073;-82
2023/08/11 01:13:18;;;;;;;3.78;3.30;;;15.90;99.90;;;;;;5057551;28;20135;-81
2023/08/11 01:16:04;;;;;;;3.97;3.60;;;15.90;99.90;;;;;;5062545;28;20048;-81
2023/08/11 01:18:30;;;;;;;6.40;2.88;;;15.90;99.90;;;;;;5058999;28;20652;-82
2023/08/11 01:21:07;;;;;;;4.53;3.25;;;15.90;99.90;;;;;;5058917;28;20106;-81
2023/08/11 01:23:34;;;;;;;3.20;2.90;;;15.90;99.90;;;;;;5063591;28;20488;-82
2023/08/11 01:26:00;;;;;;;3.80;2.97;;;15.90;99.90;;;;;;5065109;28;20072;-81
2023/08/11 01:28:27;;;;;;;3.38;3.05;;;15.80;99.90;;;;;;5057421;28;20275;-82
2023/08/11 01:30:52;;;;;;;4.10;3.13;;;15.80;99.90;;;;;;5064394;28;20132;-82
2023/08/11 01:33:18;;;;;;;3.72;2.95;;;15.80;99.90;;;;;;5064600;28;20163;-81
2023/08/11 01:35:44;;;;;;;5.38;3.53;;;15.80;99.90;;;;;;5067146;28;20040;-82
2023/08/11 01:38:10;;;;;;;3.67;3.38;;;15.70;99.90;;;;;;5065279;28;20040;-82
2023/08/11 01:40:36;;;;;;;3.95;3.50;;;15.70;99.90;;;;;;5061550;28;20041;-81
2023/08/11 01:43:05;;;;;;;3.90;3.25;;;15.70;99.90;;;;;;5061078;28;20071;-82
2023/08/11 01:45:31;;;;;;;5.60;3.75;;;15.70;99.90;;;;;;5062772;28;20046;-82
2023/08/11 01:47:57;;;;;;;6.30;3.80;;;15.70;99.90;;;;;;5065333;28;20059;-82
2023/08/11 01:50:24;;;;;;;5.97;3.63;;;15.60;99.90;;;;;;5064004;28;20043;-81
2023/08/11 01:52:52;;;;;;;4.40;4.00;;;15.60;99.90;;;;;;5061317;28;20033;-82
2023/08/11 01:55:18;;;;;;;4.80;3.40;;;15.60;99.90;;;;;;5062555;28;20080;-81
2023/08/11 01:57:44;;;;;;;6.20;3.85;;;15.60;99.90;;;;;;5065129;28;20083;-82
2023/08/11 02:00:13;;;;;;;8.73;4.30;;;15.60;99.90;;;;;;5063309;28;20124;-82
2023/08/11 02:02:43;;;;;;;4.50;4.10;;;15.60;99.90;;;;;;5043866;28;20116;-81
2023/08/11 02:05:12;;;;;;;3.90;3.45;;;15.50;99.90;;;;;;5061776;28;20132;-82
2023/08/11 02:07:39;;;;;;;4.93;4.18;;;15.50;99.90;;;;;;5063957;28;20044;-82
2023/08/11 02:10:06;;;;;;;4.93;4.53;;;15.50;99.90;;;;;;5065124;28;20040;-81
2023/08/11 02:12:32;;;;;;;9.00;5.70;;;15.50;99.90;;;;;;5062715;28;20520;-81
2023/08/11 02:14:58;;;;;;;6.03;5.13;;;15.40;99.90;;;;;;5060140;28;20109;-82
2023/08/11 02:17:24;;;;;;;8.88;4.45;;;15.40;99.90;;;;;;5061331;28;20477;-82
2023/08/11 02:19:50;;;;;;;6.40;5.75;;;15.40;99.90;;;;;;5061585;28;20122;-81
2023/08/11 02:22:16;;;;;;;5.88;5.35;;;15.40;99.90;;;;;;5060951;28;20485;-81
2023/08/11 02:24:42;;;;;;;9.07;6.78;;;15.40;99.90;;;;;;5051984;28;20052;-82
2023/08/11 02:27:09;;;;;;;9.63;6.30;;;15.40;99.90;;;;;;5061021;28;20048;-82
2023/08/11 02:29:36;;;;;;;7.90;6.30;;;15.40;99.90;;;;;;5062938;28;20417;-82
2023/08/11 02:32:05;;;;;;;8.82;6.45;;;15.40;99.90;;;;;;5064842;28;20036;-82
2023/08/11 02:34:31;;;;;;;7.43;6.75;;;15.40;99.90;;;;;;5036665;28;20045;-81
2023/08/11 02:36:56;;;;;;;8.13;7.25;;;15.30;99.90;;;;;;5064305;28;20048;-82
2023/08/11 02:39:23;;;;;;;8.27;7.47;;;15.30;99.90;;;;;;5063950;28;20037;-81
2023/08/11 02:41:51;;;;;;;11.20;7.68;;;15.30;99.90;;;;;;5060446;28;20072;-81
2023/08/11 02:44:17;;;;;;;9.20;7.22;;;15.30;99.90;;;;;;5059922;28;20458;-81
2023/08/11 02:46:42;;;;;;;8.27;7.15;;;15.30;99.90;;;;;;5064424;28;20123;-81
2023/08/11 02:49:08;;;;;;;9.18;8.38;;;15.30;99.90;;;;;;5059975;28;20037;-81
2023/08/11 02:51:39;;;;;;;11.63;7.57;;;16.20;99.90;;;;;;5074226;28;20076;-81
2023/08/11 02:54:05;;;;;;;9.35;8.38;;;15.30;99.90;;;;;;5070931;28;20135;-81
2023/08/11 02:56:31;;;;;;;11.65;8.13;;;15.30;99.90;;;;;;5062169;28;20040;-82
2023/08/11 02:58:58;;;;;;;9.13;8.20;;;15.30;99.90;;;;;;5059645;28;20083;-82
2023/08/11 03:01:25;;;;;;;10.50;9.25;;;15.30;99.90;;;;;;5059916;28;20154;-81
2023/08/11 03:03:50;;;;;;;10.73;9.63;;;15.30;99.90;;;;;;5062053;28;20136;-81
2023/08/11 03:06:16;;;;;;;10.68;9.25;;;15.20;99.90;;;;;;5063680;28;20119;-81
2023/08/11 03:08:42;;;;;;;10.75;9.10;;;15.20;99.90;;;;;;5062538;28;20481;-81
2023/08/11 03:11:08;;;;;;;11.55;8.68;;;15.20;99.90;;;;;;5059970;28;20501;-82
2023/08/11 03:13:34;;;;;;;11.38;9.52;;;15.20;99.90;;;;;;5061938;28;20500;-82
2023/08/11 03:16:00;;;;;;;11.07;9.40;;;15.20;99.90;;;;;;5062326;28;20080;-82
2023/08/11 03:18:26;;;;;;;10.50;9.43;;;15.20;99.90;;;;;;5062764;28;20085;-81
2023/08/11 03:20:54;;;;;;;11.05;8.95;;;15.20;99.90;;;;;;5059021;28;20033;-81
2023/08/11 03:23:20;;;;;;;11.90;9.55;;;15.20;99.90;;;;;;5060322;28;20045;-81
2023/08/11 03:25:46;;;;;;;11.18;9.18;;;15.20;99.90;;;;;;5061554;28;20080;-82
2023/08/11 03:28:12;;;;;;;10.55;9.60;;;15.20;99.90;;;;;;5063484;28;20445;-81
2023/08/11 03:30:37;;;;;;;11.10;9.35;;;15.20;99.90;;;;;;5062570;28;20047;-82
2023/08/11 03:33:03;;;;;;;11.10;9.35;;;15.10;99.90;;;;;;5063415;28;20040;-82
2023/08/11 03:35:32;;;;;;;11.35;9.52;;;15.10;99.90;;;;;;5063862;28;20135;-81
2023/08/11 03:37:57;;;;;;;10.20;9.20;;;15.30;99.90;;;;;;5059163;28;20120;-81
2023/08/11 03:40:23;;;;;;;11.32;10.15;;;15.20;99.90;;;;;;5066874;28;20131;-82
2023/08/11 03:42:49;;;;;;;11.32;8.55;;;15.70;99.90;;;;;;5059744;28;20033;-81
2023/08/11 03:45:15;;;;;;;9.45;8.55;;;15.10;99.90;;;;;;5059234;28;20515;-82
2023/08/11 03:47:42;;;;;;;10.30;8.65;;;15.10;99.90;;;;;;5061867;28;20064;-82
2023/08/11 03:50:08;;;;;;;10.30;9.23;;;15.20;99.90;;;;;;5062008;28;20131;-82
2023/08/11 03:52:35;;;;;;;12.00;9.00;;;15.10;99.90;;;;;;5059976;28;20040;-81
2023/08/11 03:55:01;;;;;;;10.27;8.82;;;15.20;99.90;;;;;;5060030;28;20092;-82
2023/08/11 03:57:27;;;;;;;12.60;10.35;;;15.10;99.90;;;;;;5059542;28;20041;-81
2023/08/11 03:59:53;;;;;;;15.15;9.73;;;15.70;99.90;;;;;;5062716;28;20033;-81
2023/08/11 04:02:18;;;;;;;9.23;8.32;;;15.10;99.90;;;;;;5064633;28;20040;-81
2023/08/11 04:04:45;;;;;;;10.23;9.15;;;15.10;99.90;;;;;;5062095;28;20048;-82
2023/08/11 04:07:11;;;;;;;10.63;9.43;;;15.10;99.90;;;;;;5057865;28;20045;-80
2023/08/11 04:09:41;;;;;;;10.15;9.15;;;15.10;99.90;;;;;;5064364;28;20039;-82
2023/08/11 04:12:07;;;;;;;11.23;9.27;;;15.10;99.90;;;;;;5066878;28;20102;-81
2023/08/11 04:14:32;;;;;;;10.77;9.80;;;15.10;99.90;;;;;;5065730;28;20041;-81
2023/08/11 04:16:58;;;;;;;9.60;8.70;;;15.10;99.90;;;;;;5061451;28;20041;-82
2023/08/11 04:19:24;;;;;;;10.25;9.13;;;15.10;99.90;;;;;;5062023;28;20044;-82
2023/08/11 04:21:50;;;;;;;11.23;9.48;;;15.10;99.90;;;;;;5061657;28;20068;-82
2023/08/11 04:24:17;;;;;;;11.93;9.48;;;15.10;99.90;;;;;;5059428;28;20468;-81
2023/08/11 04:26:45;;;;;;;11.02;9.27;;;15.10;99.90;;;;;;5055387;28;20049;-82
2023/08/11 04:29:12;;;;;;;9.27;8.38;;;15.10;99.90;;;;;;5063751;28;20052;-81
2023/08/11 04:31:40;;;;;;;8.80;7.97;;;15.10;99.90;;;;;;5063742;28;20044;-82
2023/08/11 04:34:06;;;;;;;10.32;9.00;;;15.10;99.90;;;;;;5044912;28;20377;-81
2023/08/11 04:36:35;;;;;;;10.98;8.52;;;15.10;99.90;;;;;;5050388;28;20041;-81
2023/08/11 04:39:00;;;;;;;9.02;8.13;;;15.40;99.90;;;;;;5075054;28;20043;-82
2023/08/11 04:41:26;;;;;;;11.27;8.88;;;15.10;99.90;;;;;;5069876;28;20461;-82
2023/08/11 04:43:52;;;;;;;12.40;8.68;;;15.10;99.90;;;;;;5062635;28;20493;-82
2023/08/11 04:46:17;;;;;;;9.40;8.48;;;15.10;99.90;;;;;;5061863;28;20041;-82
2023/08/11 04:48:43;;;;;;;11.95;9.00;;;15.10;99.90;;;;;;5062429;28;20287;-82
2023/08/11 04:51:08;;;;;;;9.00;8.07;;;15.10;99.90;;;;;;5062572;28;20074;-82
2023/08/11 04:53:34;;;;;;;8.70;7.82;;;15.20;99.90;;;;;;5064137;28;20033;-81
2023/08/11 04:56:03;;;;;;;11.88;8.85;;;15.10;99.90;;;;;;5059141;28;20302;-82
2023/08/11 04:58:28;;;;;;;10.07;8.75;;;15.20;99.90;;;;;;5065175;28;20094;-82
2023/08/11 05:00:54;;;;;;;10.35;9.35;;;15.20;99.90;;;;;;5066501;28;20049;-83
2023/08/11 05:03:20;;;;;;;9.68;8.80;;;15.20;99.90;;;;;;5066553;28;20040;-82
2023/08/11 05:05:46;;;;;;;12.23;8.77;;;15.20;99.90;;;;;;5065003;28;20084;-82
2023/08/11 05:08:11;;;;;;;8.88;8.07;;;15.20;99.90;;;;;;5062824;28;20128;-80
2023/08/11 05:10:37;;;;;;;11.52;8.85;;;15.20;99.90;;;;;;5061195;28;20412;-80
2023/08/11 05:13:04;;;;;;;9.05;8.02;;;15.20;99.90;;;;;;5065263;28;20396;-82
2023/08/11 05:15:30;;;;;;;9.90;8.32;;;15.30;99.90;;;;;;5066302;28;20044;-83
2023/08/11 05:17:56;;;;;;;10.23;7.85;;;15.20;99.90;;;;;;5062580;28;20044;-82
2023/08/11 05:20:21;;;;;;;10.18;7.43;;;15.30;99.90;;;;;;5062854;28;20044;-83
2023/08/11 05:22:47;;;;;;;8.80;7.90;;;15.30;99.90;;;;;;5064151;28;20396;-83
2023/08/11 05:25:13;;;;;;;8.93;7.57;;;15.30;99.90;;;;;;5064462;28;20043;-82
2023/08/11 05:27:39;;;;;;;8.88;8.05;;;15.40;99.90;;;;;;5065596;28;20052;-83
2023/08/11 05:30:07;;;;;;;10.65;7.90;;;15.40;99.90;;;;;;5062214;28;20043;-82
2023/08/11 05:32:33;;;;;;;8.82;7.93;;;15.40;99.90;;;;;;5062600;28;20404;-83
2023/08/11 05:34:59;;;;;;;8.02;7.22;;;15.40;99.90;;;;;;5065478;28;20040;-80
2023/08/11 05:37:24;;;;;;;9.93;8.02;;;15.50;99.90;;;;;;5066252;28;20037;-80
2023/08/11 05:39:52;;;;;;;11.68;7.32;;;15.50;99.90;;;;;;5063831;28;20052;-80
2023/08/11 05:42:18;;;;;;;12.90;7.30;;;15.50;99.90;;;;;;5065618;28;20032;-81
2023/08/11 05:44:44;;;;;;;9.05;7.07;;;15.60;99.90;;;;;;5064350;28;20443;-81
2023/08/11 05:47:10;;;;;;;9.65;7.53;;;15.60;99.90;;;;;;5060951;28;20480;-80
2023/08/11 05:49:35;;;;;;;9.20;7.18;;;15.60;99.90;;;;;;5061059;28;20052;-80
2023/08/11 05:52:01;;;;;;;8.90;7.20;;;15.70;99.90;;;;;;5064608;28;20510;-81
2023/08/11 05:54:26;;;;;;;7.78;6.65;;;15.70;99.90;;;;;;5064239;28;20044;-80
2023/08/11 05:56:54;;;;;;;9.95;6.03;;;15.80;99.90;;;;;;5063538;28;20044;-81
2023/08/11 05:59:21;;;;;;;7.43;6.47;;;15.80;99.90;;;;;;5063333;28;20489;-82
2023/08/11 06:01:47;;;;;;;7.90;6.22;;;15.80;99.90;;;;;;5062989;28;20040;-82
2023/08/11 06:04:12;;;;;;;11.52;6.68;;;15.80;99.90;;;;;;5064883;28;20195;-82
2023/08/11 06:06:38;;;;;;;7.53;5.95;;;15.90;99.90;;;;;;5063175;28;20052;-82
2023/08/11 06:09:04;;;;;;;8.57;6.55;;;15.90;99.90;;;;;;5063331;28;20037;-82
2023/08/11 06:11:30;;;;;;;7.97;7.18;;;16.10;99.90;;;;;;5062260;28;20037;-81
2023/08/11 06:13:56;;;;;;;9.93;6.65;;;16.00;99.90;;;;;;5061080;28;20040;-81
2023/08/11 06:16:22;;;;;;;7.25;6.47;;;16.10;99.90;;;;;;5062814;28;20047;-82
2023/08/11 06:18:47;;;;;;;6.88;6.18;;;16.10;99.90;;;;;;5068663;28;20033;-81
2023/08/11 06:21:13;;;;;;;7.57;6.72;;;16.20;99.90;;;;;;5066603;28;20045;-82
2023/08/11 06:23:39;;;;;;;8.68;6.40;;;16.20;99.90;;;;;;5066658;28;20447;-82
2023/08/11 06:26:05;;;;;;;11.10;5.65;;;16.30;99.90;;;;;;5074715;28;20048;-80
2023/08/11 06:28:31;;;;;;;10.43;6.70;;;16.30;99.90;;;;;;5070167;28;20041;-83
2023/08/11 06:30:57;;;;;;;7.20;6.45;;;16.40;99.90;;;;;;5065505;28;20119;-80
2023/08/11 06:33:22;;;;;;;8.73;6.30;;;16.40;99.90;;;;;;5065522;28;20064;-80
2023/08/11 06:35:48;;;;;;;8.68;5.95;;;16.50;99.90;;;;;;5063933;28;20076;-80
2023/08/11 06:38:14;;;;;;;7.60;6.28;;;16.60;99.90;;;;;;5065204;28;20039;-83
2023/08/11 06:40:44;;;;;;;10.30;6.07;;;16.60;99.90;;;;;;5067137;28;20395;-82
2023/08/11 06:43:09;;;;;;;13.07;7.10;;;16.60;99.90;;;;;;5073180;28;20594;-80
2023/08/11 06:45:35;;;;;;;8.82;6.30;;;16.70;99.90;;;;;;5067081;28;20138;-80
2023/08/11 06:48:01;;;;;;;9.77;6.88;;;16.70;99.90;;;;;;5073675;28;20141;-81
2023/08/11 06:50:26;;;;;;;8.05;6.07;;;16.80;99.90;;;;;;5058167;28;20143;-81
2023/08/11 06:52:52;;;;;;;6.22;5.63;;;16.90;99.90;;;;;;5063695;28;20041;-81
2023/08/11 06:55:18;;;;;;;10.15;5.75;;;16.90;99.90;;;;;;5060937;28;20435;-81
2023/08/11 06:57:43;;;;;;;7.95;6.50;;;17.00;99.90;;;;;;5060450;28;20032;-81
2023/08/11 07:00:09;;;;;;;7.05;5.18;;;17.00;99.90;;;;;;5063474;28;20047;-82
2023/08/11 07:02:35;;;;;;;10.57;6.70;;;17.10;99.90;;;;;;5066201;28;20118;-81
2023/08/11 07:05:04;;;;;;;12.35;5.47;;;17.90;99.90;;;;;;5059785;28;20084;-82
2023/08/11 07:07:31;;;;;;;7.75;5.35;;;17.20;99.90;;;;;;5062179;28;20108;-81
2023/08/11 07:09:57;;;;;;;5.55;4.88;;;17.30;99.90;;;;;;5061637;28;20120;-81
2023/08/11 07:12:22;;;;;;;8.88;4.93;;;17.30;99.90;;;;;;5065608;28;20511;-82
2023/08/11 07:14:48;;;;;;;8.13;5.10;;;17.50;99.90;;;;;;5066331;28;20033;-82
2023/08/11 07:17:14;;;;;;;6.75;4.78;;;17.50;99.90;;;;;;5064673;28;20327;-82
2023/08/11 07:19:39;;;;;;;7.57;6.00;;;17.70;99.90;;;;;;5064282;28;20115;-82
2023/08/11 07:22:05;;;;;;;5.70;5.05;;;17.60;99.90;;;;;;5062865;28;20052;-82
2023/08/11 07:24:31;;;;;;;8.55;5.68;;;17.80;99.90;;;;;;5060605;28;20503;-82
2023/08/11 07:26:56;;;;;;;8.65;5.53;;;17.80;99.90;;;;;;5066381;28;20067;-82
2023/08/11 07:29:25;;;;;;;7.95;5.47;;;17.80;99.90;;;;;;5054736;28;20094;-82
2023/08/11 07:31:51;;;;;;;6.90;4.90;;;17.90;99.90;;;;;;5063054;28;20044;-82
2023/08/11 07:34:17;;;;;;;8.43;5.10;;;17.90;99.90;;;;;;5061118;28;20024;-82
2023/08/11 07:36:43;;;;;;;6.85;4.63;;;17.90;99.90;;;;;;5060943;28;20052;-81
2023/08/11 07:39:09;;;;;;;7.70;4.88;;;18.00;99.90;;;;;;5077825;28;20052;-82
2023/08/11 07:41:35;;;;;;;6.32;4.10;;;18.10;99.90;;;;;;5062923;28;20053;-82
2023/08/11 07:44:02;;;;;;;4.68;4.28;;;18.10;99.90;;;;;;5062730;28;20073;-82
2023/08/11 07:46:27;;;;;;;6.30;4.10;;;18.20;99.90;;;;;;5065190;28;20094;-82
2023/08/11 07:48:53;;;;;;;6.15;5.25;;;18.30;99.90;;;;;;5055861;28;20431;-82
2023/08/11 07:51:19;;;;;;;6.43;4.22;;;18.30;99.90;;;;;;5064049;28;20056;-83
2023/08/11 07:53:44;;;;;;;4.70;3.97;;;18.40;99.90;;;;;;5063937;28;20123;-82
2023/08/11 07:56:14;;;;;;;6.57;4.50;;;18.50;99.90;;;;;;5067514;28;20039;-82
2023/08/11 07:58:40;;;;;;;4.82;3.95;;;18.60;99.90;;;;;;5063089;28;20078;-82
2023/08/11 08:01:06;;;;;;;7.18;4.20;;;18.70;99.90;;;;;;5061610;28;20461;-82
2023/08/11 08:03:32;;;;;;;7.57;4.45;;;18.70;99.90;;;;;;5041876;28;20072;-82
2023/08/11 08:05:58;;;;;;;4.45;3.70;;;18.80;99.90;;;;;;5059971;28;20092;-83
2023/08/11 08:08:23;;;;;;;8.57;5.00;;;18.90;99.90;;;;;;5062706;28;20482;-83
2023/08/11 08:10:49;;;;;;;7.47;3.70;;;19.00;99.90;;;;;;5071302;28;20551;-82
2023/08/11 08:13:14;;;;;;;6.38;3.80;;;19.10;99.90;;;;;;5068798;28;20404;-82
2023/08/11 08:15:40;;;;;;;5.28;3.40;;;19.20;99.90;;;;;;5062173;28;20155;-83
2023/08/11 08:18:06;;;;;;;5.72;3.45;;;19.20;99.90;;;;;;5060859;28;20044;-82
2023/08/11 08:20:31;;;;;;;5.03;3.25;;;19.20;99.90;;;;;;5061670;28;20048;-82
2023/08/11 08:22:57;;;;;;;5.47;3.33;;;19.30;99.90;;;;;;5061696;28;20119;-82
2023/08/11 08:25:23;;;;;;;4.53;3.53;;;19.50;99.90;;;;;;5059383;28;20443;-82
2023/08/11 08:27:49;;;;;;;5.35;3.15;;;19.50;99.90;;;;;;5058859;28;20033;-82
2023/08/11 08:30:15;;;;;;;3.97;3.40;;;19.60;99.90;;;;;;5061397;28;20120;-83
2023/08/11 08:32:41;;;;;;;4.38;2.97;;;19.60;99.90;;;;;;5064274;28;20503;-82
2023/08/11 08:35:09;;;;;;;4.63;3.08;;;19.70;99.90;;;;;;5068614;28;20048;-82
2023/08/11 08:37:35;;;;;;;3.70;2.90;;;19.70;99.90;;;;;;5066251;28;20080;-80
2023/08/11 08:40:01;;;;;;;2.95;2.70;;;19.80;99.90;;;;;;5063458;28;20047;-81
2023/08/11 08:42:30;;;;;;;3.75;2.85;;;19.90;99.90;;;;;;5053735;28;20045;-81
2023/08/11 08:44:57;;;;;;;2.80;2.58;;;19.90;99.90;;;;;;5066133;28;20550;-82
2023/08/11 08:47:24;;;;;;;6.00;3.30;;;19.90;99.90;;;;;;5064004;28;20076;-81
2023/08/11 08:49:51;;;;;;;4.68;3.60;;;20.00;99.90;;;;;;5062481;28;20045;-81
2023/08/11 08:52:17;;;;;;;2.90;2.55;;;20.10;99.90;;;;;;5066112;28;20120;-83
2023/08/11 08:54:44;;;;;;;5.68;2.97;;;20.20;99.90;;;;;;5068014;28;20118;-82
2023/08/11 08:57:10;;;;;;;4.55;2.75;;;20.30;99.90;;;;;;5066717;28;20041;-81
2023/08/11 08:59:39;;;;;;;3.42;2.75;;;20.30;99.90;;;;;;5063662;28;20048;-82
2023/08/11 09:02:07;;;;;;;4.78;2.55;;;20.40;99.90;;;;;;5064814;28;20546;-82
2023/08/11 09:04:33;;;;;;;2.95;2.70;;;20.40;99.90;;;;;;5069264;28;20095;-82
2023/08/11 09:07:00;;;;;;;3.25;2.35;;;20.50;99.90;;;;;;5063814;28;20036;-83
2023/08/11 09:09:27;;;;;;;4.15;2.75;;;20.60;99.90;;;;;;5058271;28;20537;-81
2023/08/11 09:11:54;;;;;;;7.60;2.65;;;20.60;99.90;;;;;;5069184;28;20059;-81
2023/08/11 09:14:20;;;;;;;4.95;3.47;;;20.70;99.90;;;;;;5060406;28;20033;-82
2023/08/11 09:16:46;;;;;;;4.93;2.55;;;20.70;99.90;;;;;;5064605;28;20029;-82
2023/08/11 09:19:13;;;;;;;3.97;2.80;;;20.80;99.90;;;;;;5066176;28;20436;-82
2023/08/11 09:21:43;;;;;;;6.07;3.47;;;20.90;99.90;;;;;;5067584;28;20113;-82
2023/08/11 09:24:13;;;;;;;3.58;2.53;;;21.00;99.90;;;;;;5069061;28;20116;-82
2023/08/11 09:26:49;;;;;;;7.55;2.95;;;21.10;99.90;;;;;;5063774;28;20098;-82
2023/08/11 09:29:17;;;;;;;4.38;2.63;;;21.20;99.90;;;;;;5064316;28;20045;-82
2023/08/11 09:31:52;;;;;;;6.43;3.03;;;21.20;99.90;;;;;;5066801;28;20094;-82
2023/08/11 09:34:19;;;;;;;8.30;2.75;;;21.30;99.90;;;;;;5065964;28;20051;-81
2023/08/11 09:36:46;;;;;;;5.95;2.63;;;21.40;99.90;;;;;;5050386;28;20040;-81
2023/08/11 09:39:13;;;;;;;3.58;2.83;;;21.40;99.90;;;;;;5067550;28;20488;-83
2023/08/11 09:41:44;;;;;;;4.72;2.30;;;21.50;99.90;;;;;;5064229;28;20041;-83
2023/08/11 09:44:11;;;;;;;7.07;3.28;;;21.60;99.90;;;;;;5063118;28;20036;-82
2023/08/11 09:46:38;;;;;;;5.13;2.33;;;21.70;99.90;;;;;;5056205;28;20056;-81
2023/08/11 09:49:08;;;;;;;3.55;2.38;;;21.80;99.90;;;;;;5064238;28;20033;-83
2023/08/11 09:51:35;;;;;;;5.45;2.25;;;21.90;99.90;;;;;;5072149;28;20128;-81
2023/08/11 09:54:04;;;;;;;5.30;2.25;;;22.00;99.90;;;;;;5077397;28;20087;-82
2023/08/11 09:56:34;;;;;;;4.45;2.72;;;22.10;99.90;;;;;;5072592;28;20048;-82
2023/08/11 09:59:03;;;;;;;7.97;2.75;;;22.10;99.90;;;;;;5063434;28;20047;-81
2023/08/11 10:01:31;;;;;;;6.43;2.47;;;22.20;99.90;;;;;;5064725;28;20135;-82
2023/08/11 10:04:00;;;;;;;5.45;3.55;;;22.30;99.90;;;;;;5062078;28;20064;-82
2023/08/11 10:06:29;;;;;;;5.25;3.17;;;22.40;99.90;;;;;;5065584;28;20044;-81
2023/08/11 10:09:00;;;;;;;3.78;2.53;;;22.50;99.90;;;;;;5065355;28;20356;-82
2023/08/11 10:11:32;;;;;;;2.92;2.40;;;22.50;99.90;;;;;;5064404;28;20127;-83
2023/08/11 10:14:02;;;;;;;6.97;2.35;;;22.60;99.90;;;;;;5062760;28;20048;-83
2023/08/11 10:16:30;;;;;;;4.10;2.00;;;22.60;99.90;;;;;;5065390;28;20043;-83
2023/08/11 10:18:58;;;;;;;6.70;2.45;;;22.70;99.90;;;;;;5068225;28;20052;-82
2023/08/11 10:21:27;;;;;;;2.83;2.17;;;22.80;99.90;;;;;;5068949;28;20041;-82
2023/08/11 10:23:56;;;;;;;3.35;1.98;;;22.80;99.90;;;;;;5068045;28;20041;-82
2023/08/11 10:26:23;;;;;;;3.95;2.40;;;22.90;99.90;;;;;;5066034;28;20060;-82
2023/08/11 10:28:50;;;;;;;4.47;2.30;;;22.90;99.90;;;;;;5062537;28;20041;-83
2023/08/11 10:31:16;;;;;;;3.78;2.45;;;23.00;99.90;;;;;;5061797;28;20040;-82
2023/08/11 10:33:49;;;;;;;4.68;2.15;;;23.10;99.90;;;;;;5063738;28;20393;-83
2023/08/11 10:36:16;;;;;;;4.60;2.10;;;23.20;99.90;;;;;;5063730;28;20093;-83
2023/08/11 10:38:42;;;;;;;4.35;2.20;;;23.30;99.90;;;;;;5062107;28;20037;-83
2023/08/11 10:41:14;;;;;;;2.20;1.60;;;23.40;99.90;;;;;;5042580;28;20047;-83
2023/08/11 10:43:45;;;;;;;6.85;2.55;;;23.50;99.90;;;;;;5062475;28;20041;-83
2023/08/11 10:46:19;;;;;;;6.38;3.65;;;23.60;99.90;;;;;;5046678;28;20123;-82
2023/08/11 10:48:44;;;;;;;3.50;2.17;;;23.70;99.90;;;;;;5061060;28;20519;-82
2023/08/11 10:51:24;;;;;;;6.43;2.65;;;23.80;99.90;;;;;;5060887;28;20033;-82
2023/08/11 10:53:50;;;;;;;4.05;2.20;;;23.80;99.90;;;;;;5053136;28;20407;-82
2023/08/11 10:56:30;;;;;;;5.45;1.80;;;23.80;99.90;;;;;;5059588;28;20041;-83
2023/08/11 10:59:14;;;;;;;7.20;2.00;;;23.80;99.90;;;;;;5053697;28;20067;-83
2023/08/11 11:01:42;;;;;;;3.30;2.45;;;23.80;99.90;;;;;;5062523;28;20041;-83
2023/08/11 11:04:09;;;;;;;4.30;1.90;;;23.90;99.90;;;;;;5063815;28;20080;-82
2023/08/11 11:06:35;;;;;;;4.10;1.92;;;23.90;99.90;;;;;;5062444;28;20045;-83
2023/08/11 11:09:04;;;;;;;5.07;1.77;;;24.10;99.90;;;;;;5060069;28;20363;-82
2023/08/11 11:11:30;;;;;;;5.18;1.98;;;24.20;99.90;;;;;;5061193;28;20044;-82
2023/08/11 11:13:57;;;;;;;6.35;2.05;;;24.30;99.90;;;;;;5063968;28;20032;-83
2023/08/11 11:16:22;;;;;;;5.68;2.10;;;24.40;99.90;;;;;;5063338;28;20043;-83
2023/08/11 11:18:49;;;;;;;3.03;2.05;;;24.40;99.90;;;;;;5060911;28;20033;-83
2023/08/11 11:21:17;;;;;;;5.63;2.33;;;24.50;99.90;;;;;;5060818;28;20067;-82
2023/08/11 11:23:50;;;;;;;4.78;2.20;;;24.50;99.90;;;;;;5060314;28;20091;-83
2023/08/11 11:26:29;;;;;;;3.97;1.90;;;24.50;99.90;;;;;;5063385;28;20041;-83
2023/08/11 11:28:58;;;;;;;5.13;2.15;;;24.60;99.90;;;;;;5052350;28;20160;-84
2023/08/11 11:31:26;;;;;;;6.20;2.55;;;24.60;99.90;;;;;;5058557;28;20048;-83
2023/08/11 11:33:52;;;;;;;3.60;1.85;;;24.60;99.90;;;;;;5063678;28;20040;-83
2023/08/11 11:36:19;;;;;;;6.13;2.22;;;24.70;99.90;;;;;;5065513;28;20044;-83
2023/08/11 11:38:45;;;;;;;8.85;1.92;;;24.80;99.90;;;;;;5071700;28;20041;-83
2023/08/11 11:41:16;;;;;;;4.88;2.00;;;24.80;99.90;;;;;;5063882;28;20045;-83
2023/08/11 11:43:44;;;;;;;3.88;1.70;;;24.90;99.90;;;;;;5061801;28;20162;-83
2023/08/11 11:46:16;;;;;;;4.00;1.90;;;25.00;99.90;;;;;;5063245;28;20060;-83
2023/08/11 11:48:45;;;;;;;4.75;1.98;;;25.10;99.90;;;;;;5062365;28;20036;-82
2023/08/11 11:51:15;;;;;;;5.03;2.30;;;25.40;99.90;;;;;;5059463;28;20056;-83
2023/08/11 11:53:42;;;;;;;2.72;2.30;;;25.20;99.90;;;;;;5042897;28;20233;-82
2023/08/11 11:56:12;;;;;;;7.47;2.20;;;25.30;99.90;;;;;;5061828;28;20400;-83
2023/08/11 11:58:38;;;;;;;3.92;2.00;;;25.40;99.90;;;;;;5061600;28;20037;-82
2023/08/11 12:01:17;;;;;;;3.63;2.28;;;25.40;99.90;;;;;;5059784;28;20075;-83
2023/08/11 12:03:48;;;;;;;5.13;1.90;;;25.50;99.90;;;;;;5060571;28;20045;-82
2023/08/11 12:06:17;;;;;;;2.50;1.63;;;25.60;99.90;;;;;;5061921;28;20048;-82
2023/08/11 12:08:44;;;;;;;3.50;1.70;;;25.70;99.90;;;;;;5062173;28;20465;-82
2023/08/11 12:11:15;;;;;;;1.70;1.38;;;25.80;99.90;;;;;;5060091;28;20103;-82
2023/08/11 12:13:43;;;;;;;10.20;2.50;;;25.90;99.90;;;;;;5060392;28;20539;-82
2023/08/11 12:16:12;;;;;;;2.97;1.85;;;26.00;99.90;;;;;;5063175;28;20182;-83
2023/08/11 12:18:39;;;;;;;2.17;1.55;;;26.10;99.90;;;;;;5062195;28;20561;-83
2023/08/11 12:21:06;;;;;;;4.22;2.70;;;26.10;99.90;;;;;;5061858;28;20355;-83
2023/08/11 12:23:33;;;;;;;2.05;1.80;;;26.20;99.90;;;;;;5059250;28;20071;-82
2023/08/11 12:25:59;;;;;;;3.03;1.55;;;26.30;99.90;;;;;;5061789;28;20115;-83
2023/08/11 12:28:26;;;;;;;5.43;1.92;;;26.30;99.90;;;;;;5061587;28;20037;-82
2023/08/11 12:30:51;;;;;;;2.33;1.60;;;26.30;99.90;;;;;;5059341;28;20040;-83
2023/08/11 12:33:17;;;;;;;3.92;1.80;;;26.30;99.90;;;;;;5058850;28;20128;-83
2023/08/11 12:35:43;;;;;;;4.68;2.83;;;26.40;99.90;;;;;;5058337;28;20374;-83
2023/08/11 12:38:12;;;;;;;7.25;2.53;;;26.50;99.90;;;;;;5062668;28;20055;-83
2023/08/11 12:40:42;;;;;;;4.38;2.03;;;26.60;99.90;;;;;;5060971;28;20109;-82
2023/08/11 12:43:09;;;;;;;3.95;1.73;;;26.80;99.90;;;;;;5051197;28;20045;-82
2023/08/11 12:45:35;;;;;;;2.72;1.60;;;26.80;99.90;;;;;;5059302;28;20057;-84